sensor_id;sensor_type;location;lat;lon;timestamp;pressure;altitude;pressure_sealevel;temperature;humidity
57594;BME280;43423;46.510;6.686;2023-04-01T00:01:29;95919.97;;;8.08;75.62
57594;BME280;43423;46.510;6.686;2023-04-01T00:03:55;95905.53;;;8.08;73.40
57594;BME280;43423;46.510;6.686;2023-04-01T00:06:21;95896.84;;;8.09;74.35
57594;BME280;43423;46.510;6.686;2023-04-01T00:08:47;95894.09;;;8.09;72.57
57594;BME280;43423;46.510;6.686;2023-04-01T00:11:13;95895.81;;;8.07;72.24
57594;BME280;43423;46.510;6.686;2023-04-01T00:13:40;95896.16;;;8.15;70.32
57594;BME280;43423;46.510;6.686;2023-04-01T00:16:07;95891.81;;;8.23;72.73
57594;BME280;43423;46.510;6.686;2023-04-01T00:18:33;95889.53;;;8.21;72.68
57594;BME280;43423;46.510;6.686;2023-04-01T00:20:58;95889.72;;;8.18;74.34
57594;BME280;43423;46.510;6.686;2023-04-01T00:23:24;95874.81;;;8.19;73.91
57594;BME280;43423;46.510;6.686;2023-04-01T00:25:50;95885.41;;;8.11;73.67
57594;BME280;43423;46.510;6.686;2023-04-01T00:28:17;95899.00;;;8.05;71.65
57594;BME280;43423;46.510;6.686;2023-04-01T00:30:43;95886.34;;;8.08;71.79
57594;BME280;43423;46.510;6.686;2023-04-01T00:33:09;95888.03;;;8.05;72.34
57594;BME280;43423;46.510;6.686;2023-04-01T00:35:34;95885.66;;;8.13;71.59
57594;BME280;43423;46.510;6.686;2023-04-01T00:38:00;95891.72;;;8.17;71.70
57594;BME280;43423;46.510;6.686;2023-04-01T00:40:33;95917.59;;;8.16;72.19
57594;BME280;43423;46.510;6.686;2023-04-01T00:42:59;95914.97;;;8.07;74.34
57594;BME280;43423;46.510;6.686;2023-04-01T00:45:26;95924.31;;;8.00;74.04
57594;BME280;43423;46.510;6.686;2023-04-01T00:47:52;95920.94;;;7.76;75.14
57594;BME280;43423;46.510;6.686;2023-04-01T00:50:19;95929.91;;;7.62;76.49
57594;BME280;43423;46.510;6.686;2023-04-01T00:52:45;95915.19;;;7.59;76.23
57594;BME280;43423;46.510;6.686;2023-04-01T00:55:12;95915.84;;;7.54;76.36
57594;BME280;43423;46.510;6.686;2023-04-01T00:57:42;95903.56;;;7.49;77.05
57594;BME280;43423;46.510;6.686;2023-04-01T01:00:11;95907.72;;;7.45;76.79
57594;BME280;43423;46.510;6.686;2023-04-01T01:02:41;95906.13;;;7.53;76.68
57594;BME280;43423;46.510;6.686;2023-04-01T01:05:12;95899.63;;;7.50;75.71
57594;BME280;43423;46.510;6.686;2023-04-01T01:08:03;95903.94;;;7.57;76.38
57594;BME280;43423;46.510;6.686;2023-04-01T01:10:33;95895.94;;;7.53;77.15
57594;BME280;43423;46.510;6.686;2023-04-01T01:13:41;95896.59;;;7.63;77.17
57594;BME280;43423;46.510;6.686;2023-04-01T01:16:09;95885.28;;;7.70;77.38
57594;BME280;43423;46.510;6.686;2023-04-01T01:18:51;95900.19;;;7.84;78.00
57594;BME280;43423;46.510;6.686;2023-04-01T01:21:45;95896.59;;;7.93;78.09
57594;BME280;43423;46.510;6.686;2023-04-01T01:24:40;95890.91;;;7.96;78.00
57594;BME280;43423;46.510;6.686;2023-04-01T01:27:13;95893.28;;;7.89;75.00
57594;BME280;43423;46.510;6.686;2023-04-01T01:30:08;95890.91;;;7.96;74.60
57594;BME280;43423;46.510;6.686;2023-04-01T01:35:27;95900.94;;;7.84;75.54
57594;BME280;43423;46.510;6.686;2023-04-01T01:38:12;95908.13;;;7.67;77.12
57594;BME280;43423;46.510;6.686;2023-04-01T01:40:41;95916.88;;;7.56;77.03
57594;BME280;43423;46.510;6.686;2023-04-01T01:43:11;95920.19;;;7.61;78.44
57594;BME280;43423;46.510;6.686;2023-04-01T01:45:43;95913.88;;;7.54;79.47
57594;BME280;43423;46.510;6.686;2023-04-01T01:48:11;95914.50;;;7.49;78.87
57594;BME280;43423;46.510;6.686;2023-04-01T01:50:38;95903.00;;;7.45;78.70
57594;BME280;43423;46.510;6.686;2023-04-01T01:53:11;95899.81;;;7.47;77.91
57594;BME280;43423;46.510;6.686;2023-04-01T01:55:42;95899.41;;;7.39;78.87
57594;BME280;43423;46.510;6.686;2023-04-01T02:01:16;95886.59;;;7.45;75.03
57594;BME280;43423;46.510;6.686;2023-04-01T02:03:44;95875.84;;;7.56;75.07
57594;BME280;43423;46.510;6.686;2023-04-01T02:06:14;95877.34;;;7.57;75.53
57594;BME280;43423;46.510;6.686;2023-04-01T02:08:45;95876.22;;;7.64;77.04
57594;BME280;43423;46.510;6.686;2023-04-01T02:11:13;95872.63;;;7.73;76.57
57594;BME280;43423;46.510;6.686;2023-04-01T02:13:50;95866.38;;;7.87;77.53
57594;BME280;43423;46.510;6.686;2023-04-01T02:16:24;95858.91;;;7.88;76.72
57594;BME280;43423;46.510;6.686;2023-04-01T02:18:53;95853.31;;;7.97;76.85
57594;BME280;43423;46.510;6.686;2023-04-01T02:21:22;95850.69;;;8.02;75.96
57594;BME280;43423;46.510;6.686;2023-04-01T02:23:50;95842.84;;;7.95;75.81
57594;BME280;43423;46.510;6.686;2023-04-01T02:26:18;95844.47;;;7.87;75.95
57594;BME280;43423;46.510;6.686;2023-04-01T02:28:46;95854.88;;;7.83;75.62
57594;BME280;43423;46.510;6.686;2023-04-01T02:31:12;95850.91;;;7.84;76.52
57594;BME280;43423;46.510;6.686;2023-04-01T02:33:39;95852.22;;;7.74;77.32
57594;BME280;43423;46.510;6.686;2023-04-01T02:36:05;95853.06;;;7.80;77.51
57594;BME280;43423;46.510;6.686;2023-04-01T02:38:31;95837.63;;;7.77;75.68
57594;BME280;43423;46.510;6.686;2023-04-01T02:41:00;95815.09;;;7.67;76.16
57594;BME280;43423;46.510;6.686;2023-04-01T02:43:26;95826.41;;;7.75;74.59
57594;BME280;43423;46.510;6.686;2023-04-01T02:45:52;95828.75;;;7.82;74.77
57594;BME280;43423;46.510;6.686;2023-04-01T02:48:18;95815.63;;;7.71;74.93
57594;BME280;43423;46.510;6.686;2023-04-01T02:50:43;95823.19;;;7.76;74.37
57594;BME280;43423;46.510;6.686;2023-04-01T02:53:09;95813.34;;;7.84;75.19
57594;BME280;43423;46.510;6.686;2023-04-01T02:55:35;95815.81;;;7.82;74.40
57594;BME280;43423;46.510;6.686;2023-04-01T02:58:00;95821.94;;;7.77;72.19
57594;BME280;43423;46.510;6.686;2023-04-01T03:00:26;95814.97;;;7.76;72.92
57594;BME280;43423;46.510;6.686;2023-04-01T03:02:52;95823.53;;;7.84;73.28
57594;BME280;43423;46.510;6.686;2023-04-01T03:05:18;95821.47;;;7.79;74.00
57594;BME280;43423;46.510;6.686;2023-04-01T03:07:44;95817.72;;;7.76;74.02
57594;BME280;43423;46.510;6.686;2023-04-01T03:10:09;95821.47;;;7.79;74.04
57594;BME280;43423;46.510;6.686;2023-04-01T03:12:36;95831.50;;;7.67;72.61
57594;BME280;43423;46.510;6.686;2023-04-01T03:15:01;95829.13;;;7.75;72.78
57594;BME280;43423;46.510;6.686;2023-04-01T03:17:27;95821.84;;;7.72;72.96
57594;BME280;43423;46.510;6.686;2023-04-01T03:19:53;95828.56;;;7.71;74.23
57594;BME280;43423;46.510;6.686;2023-04-01T03:22:18;95830.75;;;7.67;72.61
57594;BME280;43423;46.510;6.686;2023-04-01T03:24:48;95837.16;;;7.64;72.52
57594;BME280;43423;46.510;6.686;2023-04-01T03:27:14;95836.41;;;7.63;73.23
57594;BME280;43423;46.510;6.686;2023-04-01T03:29:40;95839.41;;;7.65;74.90
57594;BME280;43423;46.510;6.686;2023-04-01T03:32:06;95826.03;;;7.67;75.84
57594;BME280;43423;46.510;6.686;2023-04-01T03:34:31;95830.91;;;7.78;76.07
57594;BME280;43423;46.510;6.686;2023-04-01T03:36:57;95824.88;;;7.74;76.12
57594;BME280;43423;46.510;6.686;2023-04-01T03:39:23;95823.28;;;7.82;77.46
57594;BME280;43423;46.510;6.686;2023-04-01T03:41:49;95827.16;;;7.75;75.66
57594;BME280;43423;46.510;6.686;2023-04-01T03:44:14;95831.56;;;7.73;76.45
57594;BME280;43423;46.510;6.686;2023-04-01T03:46:40;95832.41;;;7.79;77.48
57594;BME280;43423;46.510;6.686;2023-04-01T03:49:07;95840.72;;;7.84;77.84
57594;BME280;43423;46.510;6.686;2023-04-01T03:51:40;95842.44;;;7.82;78.96
57594;BME280;43423;46.510;6.686;2023-04-01T03:54:06;95852.91;;;7.69;77.54
57594;BME280;43423;46.510;6.686;2023-04-01T03:56:32;95855.00;;;7.59;79.13
57594;BME280;43423;46.510;6.686;2023-04-01T03:58:58;95850.75;;;7.58;79.50
57594;BME280;43423;46.510;6.686;2023-04-01T04:01:23;95848.03;;;7.43;80.31
57594;BME280;43423;46.510;6.686;2023-04-01T04:03:50;95842.84;;;7.31;80.52
57594;BME280;43423;46.510;6.686;2023-04-01T04:06:17;95834.44;;;7.34;81.24
57594;BME280;43423;46.510;6.686;2023-04-01T04:08:43;95837.53;;;7.42;81.63
57594;BME280;43423;46.510;6.686;2023-04-01T04:11:10;95822.47;;;7.46;80.80
57594;BME280;43423;46.510;6.686;2023-04-01T04:13:35;95815.47;;;7.45;81.02
57594;BME280;43423;46.510;6.686;2023-04-01T04:16:02;95808.94;;;7.57;80.89
57594;BME280;43423;46.510;6.686;2023-04-01T04:18:28;95810.38;;;7.53;81.37
57594;BME280;43423;46.510;6.686;2023-04-01T04:20:53;95821.41;;;7.59;81.28
57594;BME280;43423;46.510;6.686;2023-04-01T04:23:19;95821.88;;;7.57;81.81
57594;BME280;43423;46.510;6.686;2023-04-01T04:28:26;95803.78;;;7.60;83.22
57594;BME280;43423;46.510;6.686;2023-04-01T04:30:52;95804.06;;;7.62;83.47
57594;BME280;43423;46.510;6.686;2023-04-01T04:33:18;95815.53;;;7.66;83.63
57594;BME280;43423;46.510;6.686;2023-04-01T04:35:44;95811.28;;;7.65;83.84
57594;BME280;43423;46.510;6.686;2023-04-01T04:38:09;95819.88;;;7.72;82.75
57594;BME280;43423;46.510;6.686;2023-04-01T04:40:37;95829.22;;;7.66;84.20
57594;BME280;43423;46.510;6.686;2023-04-01T04:43:03;95828.78;;;7.67;83.83
57594;BME280;43423;46.510;6.686;2023-04-01T04:45:28;95835.91;;;7.65;82.11
57594;BME280;43423;46.510;6.686;2023-04-01T04:47:54;95845.09;;;7.62;80.11
57594;BME280;43423;46.510;6.686;2023-04-01T04:50:20;95836.59;;;7.60;82.80
57594;BME280;43423;46.510;6.686;2023-04-01T04:52:45;95829.72;;;7.49;84.50
57594;BME280;43423;46.510;6.686;2023-04-01T04:55:11;95835.94;;;7.50;84.81
57594;BME280;43423;46.510;6.686;2023-04-01T04:57:36;95836.50;;;7.39;85.15
57594;BME280;43423;46.510;6.686;2023-04-01T05:00:03;95827.06;;;7.25;85.04
57594;BME280;43423;46.510;6.686;2023-04-01T05:02:28;95830.50;;;7.35;85.53
57594;BME280;43423;46.510;6.686;2023-04-01T05:04:54;95831.41;;;7.32;87.01
57594;BME280;43423;46.510;6.686;2023-04-01T05:07:20;95832.84;;;7.13;86.00
57594;BME280;43423;46.510;6.686;2023-04-01T05:09:46;95835.84;;;7.00;86.56
57594;BME280;43423;46.510;6.686;2023-04-01T05:12:12;95844.69;;;6.95;85.19
57594;BME280;43423;46.510;6.686;2023-04-01T05:14:38;95836.41;;;6.89;81.77
57594;BME280;43423;46.510;6.686;2023-04-01T05:17:04;95840.66;;;7.05;82.38
57594;BME280;43423;46.510;6.686;2023-04-01T05:19:29;95838.97;;;7.08;81.32
57594;BME280;43423;46.510;6.686;2023-04-01T05:21:55;95835.28;;;7.11;81.61
57594;BME280;43423;46.510;6.686;2023-04-01T05:24:20;95838.09;;;7.02;80.86
57594;BME280;43423;46.510;6.686;2023-04-01T05:26:46;95839.03;;;6.98;81.06
57594;BME280;43423;46.510;6.686;2023-04-01T05:29:12;95845.19;;;7.08;82.03
57594;BME280;43423;46.510;6.686;2023-04-01T05:31:37;95831.22;;;7.06;83.12
57594;BME280;43423;46.510;6.686;2023-04-01T05:34:03;95842.28;;;7.12;82.92
57594;BME280;43423;46.510;6.686;2023-04-01T05:36:28;95843.47;;;7.11;81.88
57594;BME280;43423;46.510;6.686;2023-04-01T05:38:57;95847.38;;;7.19;83.80
57594;BME280;43423;46.510;6.686;2023-04-01T05:41:22;95840.09;;;7.16;82.99
57594;BME280;43423;46.510;6.686;2023-04-01T05:43:48;95843.84;;;7.18;83.78
57594;BME280;43423;46.510;6.686;2023-04-01T05:46:13;95842.47;;;7.23;84.53
57594;BME280;43423;46.510;6.686;2023-04-01T05:48:39;95845.56;;;7.16;82.92
57594;BME280;43423;46.510;6.686;2023-04-01T05:51:04;95845.78;;;7.27;82.60
57594;BME280;43423;46.510;6.686;2023-04-01T05:53:31;95837.09;;;7.14;83.38
57594;BME280;43423;46.510;6.686;2023-04-01T05:56:01;95840.75;;;7.11;82.23
57594;BME280;43423;46.510;6.686;2023-04-01T05:58:28;95835.75;;;7.09;83.82
57594;BME280;43423;46.510;6.686;2023-04-01T06:01:00;95828.28;;;7.10;84.75
57594;BME280;43423;46.510;6.686;2023-04-01T06:03:26;95844.44;;;7.08;83.45
57594;BME280;43423;46.510;6.686;2023-04-01T06:05:51;95846.78;;;7.15;84.38
57594;BME280;43423;46.510;6.686;2023-04-01T06:08:18;95843.22;;;7.23;84.04
57594;BME280;43423;46.510;6.686;2023-04-01T06:19:55;95843.09;;;7.18;83.51
57594;BME280;43423;46.510;6.686;2023-04-01T06:22:38;95836.13;;;7.17;83.61
57594;BME280;43423;46.510;6.686;2023-04-01T06:30:34;95838.97;;;7.08;83.27
57594;BME280;43423;46.510;6.686;2023-04-01T06:36:17;95845.00;;;7.12;80.53
57594;BME280;43423;46.510;6.686;2023-04-01T06:49:59;95858.75;;;7.17;81.28
57594;BME280;43423;46.510;6.686;2023-04-01T06:52:58;95876.66;;;7.18;81.38
57594;BME280;43423;46.510;6.686;2023-04-01T06:55:39;95881.38;;;7.18;82.21
57594;BME280;43423;46.510;6.686;2023-04-01T06:58:11;95883.28;;;7.26;82.93
57594;BME280;43423;46.510;6.686;2023-04-01T07:00:43;95880.91;;;7.34;83.59
57594;BME280;43423;46.510;6.686;2023-04-01T07:03:26;95880.00;;;7.52;83.84
57594;BME280;43423;46.510;6.686;2023-04-01T07:06:00;95875.28;;;7.67;84.05
57594;BME280;43423;46.510;6.686;2023-04-01T07:08:28;95874.06;;;7.68;84.12
57594;BME280;43423;46.510;6.686;2023-04-01T07:11:06;95877.72;;;7.65;81.89
57594;BME280;43423;46.510;6.686;2023-04-01T07:13:53;95886.47;;;7.25;81.89
57594;BME280;43423;46.510;6.686;2023-04-01T07:16:34;95893.53;;;7.17;83.52
57594;BME280;43423;46.510;6.686;2023-04-01T07:19:09;95884.13;;;7.03;82.98
57594;BME280;43423;46.510;6.686;2023-04-01T07:24:36;95893.16;;;7.09;85.83
57594;BME280;43423;46.510;6.686;2023-04-01T07:27:05;95892.69;;;7.11;84.15
57594;BME280;43423;46.510;6.686;2023-04-01T07:29:34;95897.13;;;7.23;84.57
57594;BME280;43423;46.510;6.686;2023-04-01T07:37:45;95912.25;;;7.63;81.89
57594;BME280;43423;46.510;6.686;2023-04-01T07:45:54;95921.03;;;7.37;85.02
57594;BME280;43423;46.510;6.686;2023-04-01T07:51:29;95922.06;;;7.54;80.03
57594;BME280;43423;46.510;6.686;2023-04-01T07:54:06;95915.38;;;7.55;79.63
57594;BME280;43423;46.510;6.686;2023-04-01T08:01:58;95914.41;;;7.73;76.54
57594;BME280;43423;46.510;6.686;2023-04-01T08:07:22;95916.50;;;7.93;74.50
57594;BME280;43423;46.510;6.686;2023-04-01T08:10:16;95921.19;;;8.07;77.04
57594;BME280;43423;46.510;6.686;2023-04-01T08:13:17;95914.22;;;8.06;77.42
57594;BME280;43423;46.510;6.686;2023-04-01T08:16:06;95914.50;;;8.08;77.94
57594;BME280;43423;46.510;6.686;2023-04-01T08:21:18;95919.22;;;7.93;75.74
57594;BME280;43423;46.510;6.686;2023-04-01T08:23:48;95919.88;;;7.88;75.84
57594;BME280;43423;46.510;6.686;2023-04-01T08:26:26;95913.09;;;7.98;76.06
57594;BME280;43423;46.510;6.686;2023-04-01T08:28:57;95923.94;;;8.07;77.31
57594;BME280;43423;46.510;6.686;2023-04-01T08:31:50;95924.97;;;8.10;76.40
57594;BME280;43423;46.510;6.686;2023-04-01T08:34:38;95924.66;;;8.23;77.35
57594;BME280;43423;46.510;6.686;2023-04-01T08:37:15;95919.72;;;8.27;75.87
57594;BME280;43423;46.510;6.686;2023-04-01T08:40:02;95934.84;;;8.37;74.63
57594;BME280;43423;46.510;6.686;2023-04-01T08:51:47;95936.53;;;8.34;74.38
57594;BME280;43423;46.510;6.686;2023-04-01T09:01:10;95927.91;;;8.56;74.03
57594;BME280;43423;46.510;6.686;2023-04-01T09:03:52;95918.66;;;8.74;73.52
57594;BME280;43423;46.510;6.686;2023-04-01T09:06:31;95912.69;;;8.55;74.13
57594;BME280;43423;46.510;6.686;2023-04-01T09:20:23;95923.50;;;8.29;71.91
57594;BME280;43423;46.510;6.686;2023-04-01T09:23:15;95921.06;;;8.31;73.26
57594;BME280;43423;46.510;6.686;2023-04-01T09:40:41;95912.28;;;8.83;71.41
57594;BME280;43423;46.510;6.686;2023-04-01T09:43:23;95921.63;;;8.91;72.72
57594;BME280;43423;46.510;6.686;2023-04-01T09:52:20;95930.38;;;8.54;75.77
57594;BME280;43423;46.510;6.686;2023-04-01T09:54:55;95914.53;;;8.44;75.23
57594;BME280;43423;46.510;6.686;2023-04-01T10:00:24;95911.78;;;8.44;75.88
57594;BME280;43423;46.510;6.686;2023-04-01T10:03:11;95912.75;;;8.41;76.17
57594;BME280;43423;46.510;6.686;2023-04-01T10:31:28;95885.13;;;9.05;75.23
57594;BME280;43423;46.510;6.686;2023-04-01T10:47:46;95869.59;;;9.74;72.04
57594;BME280;43423;46.510;6.686;2023-04-01T10:53:41;95861.09;;;9.72;73.25
57594;BME280;43423;46.510;6.686;2023-04-01T11:13:39;95851.66;;;9.79;69.67
57594;BME280;43423;46.510;6.686;2023-04-01T11:21:55;95902.84;;;8.63;81.47
57594;BME280;43423;46.510;6.686;2023-04-01T11:24:49;95900.09;;;8.28;84.54
57594;BME280;43423;46.510;6.686;2023-04-01T11:30:14;95897.72;;;7.86;89.12
57594;BME280;43423;46.510;6.686;2023-04-01T11:35:59;95886.31;;;7.73;91.36
57594;BME280;43423;46.510;6.686;2023-04-01T11:43:43;95859.88;;;8.75;90.72
57594;BME280;43423;46.510;6.686;2023-04-01T11:52:04;95853.88;;;9.75;83.55
57594;BME280;43423;46.510;6.686;2023-04-01T12:06:07;95835.59;;;11.00;74.10
57594;BME280;43423;46.510;6.686;2023-04-01T12:11:20;95827.72;;;10.71;74.03
57594;BME280;43423;46.510;6.686;2023-04-01T12:14:03;95821.44;;;10.65;73.81
57594;BME280;43423;46.510;6.686;2023-04-01T12:16:58;95826.53;;;10.83;76.61
57594;BME280;43423;46.510;6.686;2023-04-01T12:25:19;95823.81;;;11.05;72.19
57594;BME280;43423;46.510;6.686;2023-04-01T12:28:01;95821.31;;;10.90;65.15
57594;BME280;43423;46.510;6.686;2023-04-01T12:30:45;95827.78;;;10.87;64.23
57594;BME280;43423;46.510;6.686;2023-04-01T12:41:59;95806.88;;;11.40;62.74
57594;BME280;43423;46.510;6.686;2023-04-01T12:58:13;95786.31;;;11.02;60.86
57594;BME280;43423;46.510;6.686;2023-04-01T13:03:47;95779.28;;;10.90;61.20
57594;BME280;43423;46.510;6.686;2023-04-01T13:09:07;95776.28;;;10.94;61.15
57594;BME280;43423;46.510;6.686;2023-04-01T13:17:21;95760.06;;;11.80;59.57
57594;BME280;43423;46.510;6.686;2023-04-01T13:19:59;95752.53;;;11.91;58.80
57594;BME280;43423;46.510;6.686;2023-04-01T13:22:40;95770.31;;;11.90;62.05
57594;BME280;43423;46.510;6.686;2023-04-01T13:27:52;95752.25;;;12.12;63.06
57594;BME280;43423;46.510;6.686;2023-04-01T13:30:25;95745.78;;;11.92;63.50
57594;BME280;43423;46.510;6.686;2023-04-01T13:33:01;95733.50;;;11.99;62.09
57594;BME280;43423;46.510;6.686;2023-04-01T13:35:55;95734.16;;;12.22;61.15
57594;BME280;43423;46.510;6.686;2023-04-01T13:38:44;95739.44;;;12.25;60.19
57594;BME280;43423;46.510;6.686;2023-04-01T13:41:42;95739.28;;;11.84;60.65
57594;BME280;43423;46.510;6.686;2023-04-01T13:44:20;95725.28;;;11.71;62.08
57594;BME280;43423;46.510;6.686;2023-04-01T13:50:01;95724.16;;;12.24;61.79
57594;BME280;43423;46.510;6.686;2023-04-01T14:00:42;95714.75;;;11.86;57.74
57594;BME280;43423;46.510;6.686;2023-04-01T14:03:30;95710.75;;;11.70;59.27
57594;BME280;43423;46.510;6.686;2023-04-01T14:06:15;95714.50;;;11.67;59.64
57594;BME280;43423;46.510;6.686;2023-04-01T14:19:56;95707.78;;;11.29;59.39
57594;BME280;43423;46.510;6.686;2023-04-01T14:22:53;95700.28;;;11.24;59.53
57594;BME280;43423;46.510;6.686;2023-04-01T14:39:43;95704.53;;;11.03;65.54
57594;BME280;43423;46.510;6.686;2023-04-01T14:45:28;95686.78;;;10.93;64.40
57594;BME280;43423;46.510;6.686;2023-04-01T14:50:50;95681.00;;;10.79;65.67
57594;BME280;43423;46.510;6.686;2023-04-01T14:53:27;95689.47;;;10.65;65.98
57594;BME280;43423;46.510;6.686;2023-04-01T14:55:58;95694.72;;;10.51;68.59
57594;BME280;43423;46.510;6.686;2023-04-01T14:58:27;95702.44;;;10.36;69.46
57594;BME280;43423;46.510;6.686;2023-04-01T15:06:36;95725.03;;;9.66;79.24
57594;BME280;43423;46.510;6.686;2023-04-01T15:09:14;95724.44;;;9.50;81.89
57594;BME280;43423;46.510;6.686;2023-04-01T15:38:44;95696.56;;;9.63;81.79
57594;BME280;43423;46.510;6.686;2023-04-01T15:43:52;95686.19;;;9.84;82.33
57594;BME280;43423;46.510;6.686;2023-04-01T15:46:44;95689.38;;;9.71;81.62
57594;BME280;43423;46.510;6.686;2023-04-01T15:49:41;95684.88;;;9.68;81.43
57594;BME280;43423;46.510;6.686;2023-04-01T15:55:25;95684.88;;;9.68;78.88
57594;BME280;43423;46.510;6.686;2023-04-01T16:00:51;95690.44;;;9.85;81.62
57594;BME280;43423;46.510;6.686;2023-04-01T16:03:39;95696.44;;;9.84;79.35
57594;BME280;43423;46.510;6.686;2023-04-01T16:06:42;95682.03;;;9.51;78.94
57594;BME280;43423;46.510;6.686;2023-04-01T16:12:04;95685.53;;;9.52;80.02
57594;BME280;43423;46.510;6.686;2023-04-01T16:14:58;95685.19;;;9.39;79.80
57594;BME280;43423;46.510;6.686;2023-04-01T16:20:20;95695.94;;;9.42;80.53
57594;BME280;43423;46.510;6.686;2023-04-01T16:22:55;95683.78;;;9.49;78.55
57594;BME280;43423;46.510;6.686;2023-04-01T16:25:40;95694.66;;;9.38;75.87
57594;BME280;43423;46.510;6.686;2023-04-01T16:28:29;95696.44;;;9.41;76.54
57594;BME280;43423;46.510;6.686;2023-04-01T16:31:27;95693.25;;;9.48;76.23
57594;BME280;43423;46.510;6.686;2023-04-01T16:39:50;95700.91;;;9.38;74.12
57594;BME280;43423;46.510;6.686;2023-04-01T16:42:31;95707.19;;;9.44;74.70
57594;BME280;43423;46.510;6.686;2023-04-01T16:47:45;95707.13;;;9.39;75.16
57594;BME280;43423;46.510;6.686;2023-04-01T16:53:17;95702.28;;;9.22;74.81
57594;BME280;43423;46.510;6.686;2023-04-01T16:55:52;95703.72;;;9.12;73.89
57594;BME280;43423;46.510;6.686;2023-04-01T17:01:43;95703.00;;;9.17;75.60
57594;BME280;43423;46.510;6.686;2023-04-01T17:07:20;95703.78;;;9.23;76.35
57594;BME280;43423;46.510;6.686;2023-04-01T17:10:24;95706.81;;;9.26;76.45
57594;BME280;43423;46.510;6.686;2023-04-01T17:23:45;95728.91;;;8.85;77.47
57594;BME280;43423;46.510;6.686;2023-04-01T17:26:32;95728.38;;;8.81;78.69
57594;BME280;43423;46.510;6.686;2023-04-01T17:29:20;95725.34;;;8.79;79.34
57594;BME280;43423;46.510;6.686;2023-04-01T17:38:01;95733.47;;;8.67;80.66
57594;BME280;43423;46.510;6.686;2023-04-01T17:45:50;95738.69;;;8.65;80.83
57594;BME280;43423;46.510;6.686;2023-04-01T17:48:24;95740.66;;;8.65;79.95
57594;BME280;43423;46.510;6.686;2023-04-01T17:51:18;95755.19;;;8.71;79.72
57594;BME280;43423;46.510;6.686;2023-04-01T17:54:15;95766.66;;;8.49;80.70
57594;BME280;43423;46.510;6.686;2023-04-01T18:05:27;95790.03;;;8.09;81.37
57594;BME280;43423;46.510;6.686;2023-04-01T18:10:41;95792.16;;;8.00;79.80
57594;BME280;43423;46.510;6.686;2023-04-01T18:21:49;95807.28;;;7.95;80.75
57594;BME280;43423;46.510;6.686;2023-04-01T18:24:33;95798.66;;;8.02;80.27
57594;BME280;43423;46.510;6.686;2023-04-01T18:27:03;95810.72;;;8.10;79.43
57594;BME280;43423;46.510;6.686;2023-04-01T18:29:44;95813.31;;;7.99;81.18
57594;BME280;43423;46.510;6.686;2023-04-01T18:38:12;95822.34;;;8.05;79.12
57594;BME280;43423;46.510;6.686;2023-04-01T18:40:45;95816.59;;;8.03;78.66
57594;BME280;43423;46.510;6.686;2023-04-01T18:43:26;95821.53;;;7.99;77.47
57594;BME280;43423;46.510;6.686;2023-04-01T18:46:07;95829.53;;;8.03;75.90
57594;BME280;43423;46.510;6.686;2023-04-01T18:48:43;95829.44;;;7.97;76.46
57594;BME280;43423;46.510;6.686;2023-04-01T18:51:48;95834.25;;;8.02;76.90
57594;BME280;43423;46.510;6.686;2023-04-01T18:54:42;95842.59;;;8.13;78.14
57594;BME280;43423;46.510;6.686;2023-04-01T18:57:18;95845.06;;;8.11;78.31
57594;BME280;43423;46.510;6.686;2023-04-01T18:59:50;95848.97;;;8.05;79.88
57594;BME280;43423;46.510;6.686;2023-04-01T19:02:34;95849.53;;;8.09;79.57
57594;BME280;43423;46.510;6.686;2023-04-01T19:05:15;95848.06;;;7.93;79.93
57594;BME280;43423;46.510;6.686;2023-04-01T19:07:54;95850.13;;;7.98;80.31
57594;BME280;43423;46.510;6.686;2023-04-01T19:15:30;95867.38;;;8.04;79.91
57594;BME280;43423;46.510;6.686;2023-04-01T19:18:16;95870.72;;;7.94;80.14
57594;BME280;43423;46.510;6.686;2023-04-01T19:20:55;95875.91;;;7.92;80.29
57594;BME280;43423;46.510;6.686;2023-04-01T19:23:49;95876.94;;;7.94;80.28
57594;BME280;43423;46.510;6.686;2023-04-01T19:29:40;95876.94;;;7.94;80.55
57594;BME280;43423;46.510;6.686;2023-04-01T19:32:33;95881.75;;;7.99;80.09
57594;BME280;43423;46.510;6.686;2023-04-01T19:35:17;95886.13;;;7.91;80.21
57594;BME280;43423;46.510;6.686;2023-04-01T19:37:50;95889.91;;;7.64;80.16
57594;BME280;43423;46.510;6.686;2023-04-01T19:40:42;95884.53;;;7.70;79.32
57594;BME280;43423;46.510;6.686;2023-04-01T19:45:44;95891.31;;;7.60;78.92
57594;BME280;43423;46.510;6.686;2023-04-01T19:49:16;95896.91;;;7.50;79.48
57594;BME280;43423;46.510;6.686;2023-04-01T19:51:09;95891.44;;;7.50;78.65
57594;BME280;43423;46.510;6.686;2023-04-01T19:56:23;95903.56;;;7.49;78.04
57594;BME280;43423;46.510;6.686;2023-04-01T19:59:31;95905.75;;;7.45;78.60
57594;BME280;43423;46.510;6.686;2023-04-01T20:02:19;95903.84;;;7.37;79.04
57594;BME280;43423;46.510;6.686;2023-04-01T20:04:50;95898.19;;;7.40;78.84
57594;BME280;43423;46.510;6.686;2023-04-01T20:07:27;95898.28;;;7.31;79.84
57594;BME280;43423;46.510;6.686;2023-04-01T20:10:10;95906.41;;;7.40;80.18
57594;BME280;43423;46.510;6.686;2023-04-01T20:17:59;95912.94;;;7.43;80.21
57594;BME280;43423;46.510;6.686;2023-04-01T20:20:30;95908.47;;;7.31;80.67
57594;BME280;43423;46.510;6.686;2023-04-01T20:23:27;95912.03;;;7.22;80.93
57594;BME280;43423;46.510;6.686;2023-04-01T20:25:59;95918.75;;;7.21;80.53
57594;BME280;43423;46.510;6.686;2023-04-01T20:28:41;95910.53;;;7.21;80.52
57594;BME280;43423;46.510;6.686;2023-04-01T20:32:03;95913.75;;;7.34;80.58
57594;BME280;43423;46.510;6.686;2023-04-01T20:37:23;95924.28;;;7.26;80.60
57594;BME280;43423;46.510;6.686;2023-04-01T20:45:35;95935.31;;;7.17;80.86
57594;BME280;43423;46.510;6.686;2023-04-01T20:48:19;95924.47;;;7.23;80.54
57594;BME280;43423;46.510;6.686;2023-04-01T20:50:51;95925.22;;;7.09;81.49
57594;BME280;43423;46.510;6.686;2023-04-01T20:58:50;95924.28;;;7.12;81.85
57594;BME280;43423;46.510;6.686;2023-04-01T21:04:33;95925.63;;;6.92;82.61
57594;BME280;43423;46.510;6.686;2023-04-01T21:07:19;95925.22;;;6.85;82.10
57594;BME280;43423;46.510;6.686;2023-04-01T21:10:08;95928.84;;;6.91;82.60
57594;BME280;43423;46.510;6.686;2023-04-01T21:23:19;95941.63;;;6.85;81.20
57594;BME280;43423;46.510;6.686;2023-04-01T21:26:04;95942.03;;;6.92;80.78